sensor_id;sensor_type;location;lat;lon;timestamp;pressure;altitude;pressure_sealevel;temperature;humidity
57192;BME280;43052;52.588;13.396;2024-03-25T00:00:35;99372.13;;;6.58;88.73
57192;BME280;43052;52.588;13.396;2024-03-25T00:03:00;99366.09;;;6.56;88.88
57192;BME280;43052;52.588;13.396;2024-03-25T00:05:26;99365.19;;;6.58;89.02
57192;BME280;43052;52.588;13.396;2024-03-25T00:07:52;99368.63;;;6.64;89.10
57192;BME280;43052;52.588;13.396;2024-03-25T00:10:18;99381.56;;;6.67;89.14
57192;BME280;43052;52.588;13.396;2024-03-25T00:12:46;99379.91;;;6.61;88.83
57192;BME280;43052;52.588;13.396;2024-03-25T00:15:12;99379.00;;;6.64;89.13
57192;BME280;43052;52.588;13.396;2024-03-25T00:17:37;99367.84;;;6.54;88.98
57192;BME280;43052;52.588;13.396;2024-03-25T00:20:03;99373.16;;;6.46;88.95
57192;BME280;43052;52.588;13.396;2024-03-25T00:22:31;99380.13;;;6.39;89.23
57192;BME280;43052;52.588;13.396;2024-03-25T00:24:56;99373.31;;;6.26;89.22
57192;BME280;43052;52.588;13.396;2024-03-25T00:27:22;99379.47;;;6.19;89.51
57192;BME280;43052;52.588;13.396;2024-03-25T00:29:47;99385.56;;;6.13;89.91
57192;BME280;43052;52.588;13.396;2024-03-25T00:32:13;99392.47;;;6.14;90.15
57192;BME280;43052;52.588;13.396;2024-03-25T00:34:40;99386.47;;;6.10;90.33
57192;BME280;43052;52.588;13.396;2024-03-25T00:37:05;99406.28;;;6.18;90.59
57192;BME280;43052;52.588;13.396;2024-03-25T00:39:31;99400.19;;;6.23;90.58
57192;BME280;43052;52.588;13.396;2024-03-25T00:42:00;99402.72;;;6.28;90.57
57192;BME280;43052;52.588;13.396;2024-03-25T00:44:25;99407.88;;;6.33;90.92
57192;BME280;43052;52.588;13.396;2024-03-25T00:46:51;99395.78;;;6.33;90.45
57192;BME280;43052;52.588;13.396;2024-03-25T00:49:16;99410.34;;;6.47;90.16
57192;BME280;43052;52.588;13.396;2024-03-25T00:51:42;99406.06;;;6.42;90.11
57192;BME280;43052;52.588;13.396;2024-03-25T00:54:07;99412.84;;;6.56;90.26
57192;BME280;43052;52.588;13.396;2024-03-25T00:56:33;99411.94;;;6.62;90.02
57192;BME280;43052;52.588;13.396;2024-03-25T00:58:59;99398.13;;;6.58;89.81
57192;BME280;43052;52.588;13.396;2024-03-25T01:01:31;99408.47;;;6.59;89.50
57192;BME280;43052;52.588;13.396;2024-03-25T01:03:57;99419.66;;;6.68;89.60
57192;BME280;43052;52.588;13.396;2024-03-25T01:06:23;99405.88;;;6.61;89.62
57192;BME280;43052;52.588;13.396;2024-03-25T01:08:49;99411.00;;;6.66;89.78
57192;BME280;43052;52.588;13.396;2024-03-25T01:11:14;99417.91;;;6.70;89.34
57192;BME280;43052;52.588;13.396;2024-03-25T01:13:40;99411.91;;;6.65;89.56
57192;BME280;43052;52.588;13.396;2024-03-25T01:16:07;99411.84;;;6.71;89.34
57192;BME280;43052;52.588;13.396;2024-03-25T01:18:33;99416.09;;;6.75;89.09
57192;BME280;43052;52.588;13.396;2024-03-25T01:20:58;99422.16;;;6.76;89.08
57192;BME280;43052;52.588;13.396;2024-03-25T01:23:25;99410.09;;;6.73;88.99
57192;BME280;43052;52.588;13.396;2024-03-25T01:25:50;99413.59;;;6.67;88.86
57192;BME280;43052;52.588;13.396;2024-03-25T01:28:16;99413.59;;;6.67;88.75
57192;BME280;43052;52.588;13.396;2024-03-25T01:30:41;99409.25;;;6.69;88.79
57192;BME280;43052;52.588;13.396;2024-03-25T01:33:07;99427.34;;;6.79;88.68
57192;BME280;43052;52.588;13.396;2024-03-25T01:35:32;99423.97;;;6.69;88.45
57192;BME280;43052;52.588;13.396;2024-03-25T01:37:58;99420.53;;;6.67;88.56
57192;BME280;43052;52.588;13.396;2024-03-25T01:40:24;99434.34;;;6.72;88.78
57192;BME280;43052;52.588;13.396;2024-03-25T01:42:59;99425.72;;;6.68;88.58
57192;BME280;43052;52.588;13.396;2024-03-25T01:45:25;99430.88;;;6.71;88.49
57192;BME280;43052;52.588;13.396;2024-03-25T01:47:52;99436.06;;;6.71;88.85
57192;BME280;43052;52.588;13.396;2024-03-25T01:50:20;99432.59;;;6.74;88.51
57192;BME280;43052;52.588;13.396;2024-03-25T01:52:46;99437.72;;;6.80;88.56
57192;BME280;43052;52.588;13.396;2024-03-25T01:55:15;99440.34;;;6.79;88.58
57192;BME280;43052;52.588;13.396;2024-03-25T01:57:46;99434.38;;;6.66;88.30
57192;BME280;43052;52.588;13.396;2024-03-25T02:00:12;99445.63;;;6.68;88.69
57192;BME280;43052;52.588;13.396;2024-03-25T02:02:45;99439.69;;;6.58;89.17
57192;BME280;43052;52.588;13.396;2024-03-25T02:05:13;99445.72;;;6.60;89.01
57192;BME280;43052;52.588;13.396;2024-03-25T02:07:40;99458.66;;;6.63;89.45
57192;BME280;43052;52.588;13.396;2024-03-25T02:10:08;99443.19;;;6.52;89.59
57192;BME280;43052;52.588;13.396;2024-03-25T02:12:37;99451.78;;;6.59;89.60
57192;BME280;43052;52.588;13.396;2024-03-25T02:15:04;99454.38;;;6.59;89.68
57192;BME280;43052;52.588;13.396;2024-03-25T02:17:29;99454.44;;;6.53;89.40
57192;BME280;43052;52.588;13.396;2024-03-25T02:19:55;99456.22;;;6.48;89.66
57192;BME280;43052;52.588;13.396;2024-03-25T02:22:20;99457.19;;;6.39;89.83
57192;BME280;43052;52.588;13.396;2024-03-25T02:24:47;99465.88;;;6.35;90.00
57192;BME280;43052;52.588;13.396;2024-03-25T02:27:15;99463.28;;;6.33;89.87
57192;BME280;43052;52.588;13.396;2024-03-25T02:29:41;99457.34;;;6.19;89.77
57192;BME280;43052;52.588;13.396;2024-03-25T02:32:07;99466.94;;;6.10;89.58
57192;BME280;43052;52.588;13.396;2024-03-25T02:34:37;99474.72;;;6.12;89.45
57192;BME280;43052;52.588;13.396;2024-03-25T02:37:03;99482.47;;;6.15;89.14
57192;BME280;43052;52.588;13.396;2024-03-25T02:39:29;99485.94;;;6.14;89.35
57192;BME280;43052;52.588;13.396;2024-03-25T02:41:55;99499.72;;;6.22;89.40
57192;BME280;43052;52.588;13.396;2024-03-25T02:44:21;99492.81;;;6.21;89.33
57192;BME280;43052;52.588;13.396;2024-03-25T02:46:48;99486.78;;;6.16;89.15
57192;BME280;43052;52.588;13.396;2024-03-25T02:49:14;99486.78;;;6.13;89.56
57192;BME280;43052;52.588;13.396;2024-03-25T02:51:40;99500.69;;;6.09;89.13
57192;BME280;43052;52.588;13.396;2024-03-25T02:54:05;99497.28;;;6.04;89.33
57192;BME280;43052;52.588;13.396;2024-03-25T02:56:33;99498.13;;;6.01;89.72
57192;BME280;43052;52.588;13.396;2024-03-25T02:58:59;99507.59;;;6.11;89.67
57192;BME280;43052;52.588;13.396;2024-03-25T03:01:25;99510.22;;;6.07;89.59
57192;BME280;43052;52.588;13.396;2024-03-25T03:03:50;99499.81;;;6.08;89.76
57192;BME280;43052;52.588;13.396;2024-03-25T03:06:15;99510.19;;;6.11;89.66
57192;BME280;43052;52.588;13.396;2024-03-25T03:08:41;99513.66;;;6.09;89.59
57192;BME280;43052;52.588;13.396;2024-03-25T03:11:06;99525.72;;;6.19;89.45
57192;BME280;43052;52.588;13.396;2024-03-25T03:13:32;99515.38;;;6.08;89.62
57192;BME280;43052;52.588;13.396;2024-03-25T03:15:57;99531.78;;;6.18;90.23
57192;BME280;43052;52.588;13.396;2024-03-25T03:18:23;99530.03;;;6.17;90.07
57192;BME280;43052;52.588;13.396;2024-03-25T03:20:48;99526.59;;;6.17;90.16
57192;BME280;43052;52.588;13.396;2024-03-25T03:23:14;99535.16;;;6.26;90.20
57192;BME280;43052;52.588;13.396;2024-03-25T03:25:40;99543.84;;;6.25;90.43
57192;BME280;43052;52.588;13.396;2024-03-25T03:28:06;99532.59;;;6.23;90.34
57192;BME280;43052;52.588;13.396;2024-03-25T03:30:31;99535.22;;;6.20;90.49
57192;BME280;43052;52.588;13.396;2024-03-25T03:32:57;99533.50;;;6.19;90.84
57192;BME280;43052;52.588;13.396;2024-03-25T03:35:22;99533.50;;;6.19;91.02
57192;BME280;43052;52.588;13.396;2024-03-25T03:37:48;99536.94;;;6.21;90.55
57192;BME280;43052;52.588;13.396;2024-03-25T03:40:14;99549.88;;;6.27;90.54
57192;BME280;43052;52.588;13.396;2024-03-25T03:42:39;99546.44;;;6.25;90.41
57192;BME280;43052;52.588;13.396;2024-03-25T03:45:06;99569.75;;;6.33;90.57
57192;BME280;43052;52.588;13.396;2024-03-25T03:47:32;99563.72;;;6.28;90.84
57192;BME280;43052;52.588;13.396;2024-03-25T03:49:57;99565.41;;;6.31;90.90
57192;BME280;43052;52.588;13.396;2024-03-25T03:52:22;99566.31;;;6.31;90.71
57192;BME280;43052;52.588;13.396;2024-03-25T03:54:48;99580.13;;;6.35;91.18
57192;BME280;43052;52.588;13.396;2024-03-25T03:57:13;99577.53;;;6.32;91.10
57192;BME280;43052;52.588;13.396;2024-03-25T03:59:39;99574.94;;;6.33;91.19
57192;BME280;43052;52.588;13.396;2024-03-25T04:02:05;99577.59;;;6.24;91.22
57192;BME280;43052;52.588;13.396;2024-03-25T04:04:30;99583.59;;;6.34;91.48
57192;BME280;43052;52.588;13.396;2024-03-25T04:06:56;99588.78;;;6.31;91.39
57192;BME280;43052;52.588;13.396;2024-03-25T04:09:21;99584.53;;;6.22;91.37
57192;BME280;43052;52.588;13.396;2024-03-25T04:11:49;99590.56;;;6.22;91.56
57192;BME280;43052;52.588;13.396;2024-03-25T04:14:15;99594.91;;;6.22;91.54
57192;BME280;43052;52.588;13.396;2024-03-25T04:16:40;99598.38;;;6.21;91.40
57192;BME280;43052;52.588;13.396;2024-03-25T04:19:06;99594.94;;;6.19;91.50
57192;BME280;43052;52.588;13.396;2024-03-25T04:21:31;99601.84;;;6.23;91.37
57192;BME280;43052;52.588;13.396;2024-03-25T04:23:56;99613.09;;;6.22;91.42
57192;BME280;43052;52.588;13.396;2024-03-25T04:26:22;99606.19;;;6.13;91.15
57192;BME280;43052;52.588;13.396;2024-03-25T04:28:47;99612.31;;;6.09;91.13
57192;BME280;43052;52.588;13.396;2024-03-25T04:31:13;99605.41;;;6.06;91.08
57192;BME280;43052;52.588;13.396;2024-03-25T04:33:38;99616.63;;;6.07;91.26
57192;BME280;43052;52.588;13.396;2024-03-25T04:36:26;99621.84;;;6.04;91.12
57192;BME280;43052;52.588;13.396;2024-03-25T04:38:55;99628.72;;;6.09;91.16
57192;BME280;43052;52.588;13.396;2024-03-25T04:41:23;99622.69;;;6.07;91.16
57192;BME280;43052;52.588;13.396;2024-03-25T04:43:54;99628.72;;;6.09;91.00
57192;BME280;43052;52.588;13.396;2024-03-25T04:46:22;99635.63;;;6.14;90.95
57192;BME280;43052;52.588;13.396;2024-03-25T04:49:02;99644.28;;;6.13;91.09
57192;BME280;43052;52.588;13.396;2024-03-25T04:51:54;99627.88;;;6.06;91.29
57192;BME280;43052;52.588;13.396;2024-03-25T04:54:26;99647.72;;;6.18;91.09
57192;BME280;43052;52.588;13.396;2024-03-25T04:56:54;99639.94;;;6.18;91.34
57192;BME280;43052;52.588;13.396;2024-03-25T04:59:36;99648.66;;;6.06;91.35
57192;BME280;43052;52.588;13.396;2024-03-25T05:02:17;99648.66;;;6.04;91.79
57192;BME280;43052;52.588;13.396;2024-03-25T05:05:37;99655.59;;;6.05;91.98
57192;BME280;43052;52.588;13.396;2024-03-25T07:13:49;99841.28;;;6.95;88.83
57192;BME280;43052;52.588;13.396;2024-03-25T07:16:14;99849.97;;;6.90;89.37
57192;BME280;43052;52.588;13.396;2024-03-25T07:18:40;99860.34;;;6.95;89.44
57192;BME280;43052;52.588;13.396;2024-03-25T07:21:05;99855.16;;;6.92;89.16
57192;BME280;43052;52.588;13.396;2024-03-25T07:23:31;99859.50;;;6.92;88.91
57192;BME280;43052;52.588;13.396;2024-03-25T07:25:57;99867.22;;;7.01;89.04
57192;BME280;43052;52.588;13.396;2024-03-25T07:28:22;99864.66;;;6.98;88.70
57192;BME280;43052;52.588;13.396;2024-03-25T07:30:50;99864.66;;;7.02;88.73
57192;BME280;43052;52.588;13.396;2024-03-25T07:33:18;99875.00;;;7.09;88.57
57192;BME280;43052;52.588;13.396;2024-03-25T07:35:44;99866.38;;;7.05;88.31
57192;BME280;43052;52.588;13.396;2024-03-25T07:38:10;99868.97;;;6.97;88.12
57192;BME280;43052;52.588;13.396;2024-03-25T07:40:35;99878.50;;;7.03;88.95
57192;BME280;43052;52.588;13.396;2024-03-25T07:43:01;99878.41;;;7.21;88.58
57192;BME280;43052;52.588;13.396;2024-03-25T07:45:26;99878.38;;;7.26;88.45
57192;BME280;43052;52.588;13.396;2024-03-25T07:47:52;99889.59;;;7.36;88.22
57192;BME280;43052;52.588;13.396;2024-03-25T07:50:18;99886.16;;;7.31;88.05
57192;BME280;43052;52.588;13.396;2024-03-25T07:52:45;99894.81;;;7.30;87.61
57192;BME280;43052;52.588;13.396;2024-03-25T07:55:10;99886.19;;;7.25;87.83
57192;BME280;43052;52.588;13.396;2024-03-25T07:57:38;99895.72;;;7.26;87.47
57192;BME280;43052;52.588;13.396;2024-03-25T08:00:04;99898.34;;;7.21;87.97
57192;BME280;43052;52.588;13.396;2024-03-25T08:02:40;99901.81;;;7.20;87.82
57192;BME280;43052;52.588;13.396;2024-03-25T08:05:05;99913.94;;;7.26;87.72
57192;BME280;43052;52.588;13.396;2024-03-25T08:07:34;99906.09;;;7.30;87.65
57192;BME280;43052;52.588;13.396;2024-03-25T08:10:00;99899.09;;;7.37;88.18
57192;BME280;43052;52.588;13.396;2024-03-25T08:12:25;99908.53;;;7.57;87.80
57192;BME280;43052;52.588;13.396;2024-03-25T08:14:51;99925.75;;;7.73;86.62
57192;BME280;43052;52.588;13.396;2024-03-25T08:17:16;99917.97;;;7.75;86.06
57192;BME280;43052;52.588;13.396;2024-03-25T08:19:42;99922.31;;;7.69;85.80
57192;BME280;43052;52.588;13.396;2024-03-25T08:22:07;99918.78;;;7.77;86.01
57192;BME280;43052;52.588;13.396;2024-03-25T08:24:33;99928.94;;;8.09;85.53
57192;BME280;43052;52.588;13.396;2024-03-25T08:26:58;99928.56;;;8.53;84.84
57192;BME280;43052;52.588;13.396;2024-03-25T08:29:24;99928.16;;;8.90;83.38
57192;BME280;43052;52.588;13.396;2024-03-25T08:31:49;99930.53;;;9.12;81.07
57192;BME280;43052;52.588;13.396;2024-03-25T08:34:15;99940.78;;;9.24;80.35
57192;BME280;43052;52.588;13.396;2024-03-25T08:36:41;99939.00;;;9.28;78.74
57192;BME280;43052;52.588;13.396;2024-03-25T08:39:09;99944.56;;;9.01;79.08
57192;BME280;43052;52.588;13.396;2024-03-25T08:41:35;99948.19;;;8.89;79.01
57192;BME280;43052;52.588;13.396;2024-03-25T08:44:01;99936.16;;;8.76;79.32
57192;BME280;43052;52.588;13.396;2024-03-25T08:46:26;99945.78;;;8.68;79.19
57192;BME280;43052;52.588;13.396;2024-03-25T08:48:52;99949.34;;;8.60;80.00
57192;BME280;43052;52.588;13.396;2024-03-25T08:51:18;99955.41;;;8.62;80.16
57192;BME280;43052;52.588;13.396;2024-03-25T08:53:43;99958.03;;;8.61;80.18
57192;BME280;43052;52.588;13.396;2024-03-25T08:56:09;99964.97;;;8.62;79.89
57192;BME280;43052;52.588;13.396;2024-03-25T08:58:34;99962.47;;;8.54;79.63
57192;BME280;43052;52.588;13.396;2024-03-25T09:01:00;99958.97;;;8.54;79.93
57192;BME280;43052;52.588;13.396;2024-03-25T09:03:34;99978.03;;;8.57;80.02
57192;BME280;43052;52.588;13.396;2024-03-25T09:05:59;99977.22;;;8.54;79.94
57192;BME280;43052;52.588;13.396;2024-03-25T09:08:26;99973.63;;;8.64;80.15
57192;BME280;43052;52.588;13.396;2024-03-25T09:10:51;99983.91;;;8.81;80.27
57192;BME280;43052;52.588;13.396;2024-03-25T09:13:32;99979.34;;;9.00;79.94
57192;BME280;43052;52.588;13.396;2024-03-25T09:16:04;99992.59;;;9.55;79.60
57192;BME280;43052;52.588;13.396;2024-03-25T09:18:30;99980.69;;;9.95;77.62
57192;BME280;43052;52.588;13.396;2024-03-25T09:20:56;99986.66;;;10.03;75.41
57192;BME280;43052;52.588;13.396;2024-03-25T09:23:21;100000.75;;;9.93;75.30
57192;BME280;43052;52.588;13.396;2024-03-25T09:25:58;99994.28;;;9.57;76.17
57192;BME280;43052;52.588;13.396;2024-03-25T09:28:24;100001.44;;;9.41;77.43
57192;BME280;43052;52.588;13.396;2024-03-25T09:30:49;100014.38;;;9.51;77.96
57192;BME280;43052;52.588;13.396;2024-03-25T09:33:15;100006.44;;;9.57;77.46
57192;BME280;43052;52.588;13.396;2024-03-25T09:35:41;100005.50;;;9.64;76.17
57192;BME280;43052;52.588;13.396;2024-03-25T09:38:06;100006.44;;;9.57;75.16
57192;BME280;43052;52.588;13.396;2024-03-25T09:40:35;100008.44;;;9.38;75.70
57192;BME280;43052;52.588;13.396;2024-03-25T09:43:06;100010.44;;;9.17;76.46
57192;BME280;43052;52.588;13.396;2024-03-25T09:45:38;100025.31;;;9.11;76.81
57192;BME280;43052;52.588;13.396;2024-03-25T09:48:05;100029.69;;;9.05;77.33
57192;BME280;43052;52.588;13.396;2024-03-25T09:50:32;100032.41;;;8.94;77.77
57192;BME280;43052;52.588;13.396;2024-03-25T09:52:58;100036.81;;;8.88;78.34
57192;BME280;43052;52.588;13.396;2024-03-25T09:55:24;100048.13;;;8.87;78.66
57192;BME280;43052;52.588;13.396;2024-03-25T09:57:49;100032.50;;;8.87;79.30
57192;BME280;43052;52.588;13.396;2024-03-25T10:00:15;100037.41;;;9.16;79.58
57192;BME280;43052;52.588;13.396;2024-03-25T10:02:42;100034.16;;;9.69;79.26
57192;BME280;43052;52.588;13.396;2024-03-25T10:05:08;100042.06;;;10.24;76.29
57192;BME280;43052;52.588;13.396;2024-03-25T10:07:34;100047.91;;;10.41;74.79
57192;BME280;43052;52.588;13.396;2024-03-25T10:10:03;100043.03;;;10.16;73.38
57192;BME280;43052;52.588;13.396;2024-03-25T10:12:28;100050.94;;;10.13;74.25
57192;BME280;43052;52.588;13.396;2024-03-25T10:14:54;100053.34;;;10.26;74.67
57192;BME280;43052;52.588;13.396;2024-03-25T10:17:22;100051.25;;;10.51;74.43
57192;BME280;43052;52.588;13.396;2024-03-25T10:19:47;100045.63;;;10.74;73.22
57192;BME280;43052;52.588;13.396;2024-03-25T10:22:13;100055.94;;;10.82;72.06
57192;BME280;43052;52.588;13.396;2024-03-25T10:24:45;100049.16;;;10.72;71.42
57192;BME280;43052;52.588;13.396;2024-03-25T10:27:17;100047.66;;;10.58;70.85
57192;BME280;43052;52.588;13.396;2024-03-25T10:29:43;100056.03;;;10.79;71.68
57192;BME280;43052;52.588;13.396;2024-03-25T10:32:09;100058.19;;;11.02;70.46
57192;BME280;43052;52.588;13.396;2024-03-25T10:34:34;100046.88;;;11.02;69.39
57192;BME280;43052;52.588;13.396;2024-03-25T10:37:01;100044.81;;;11.19;68.92
57192;BME280;43052;52.588;13.396;2024-03-25T10:39:31;100059.16;;;11.43;65.65
57192;BME280;43052;52.588;13.396;2024-03-25T10:41:58;100057.03;;;11.63;65.28
57192;BME280;43052;52.588;13.396;2024-03-25T10:44:27;100047.88;;;11.82;64.76
57192;BME280;43052;52.588;13.396;2024-03-25T10:50:26;100055.06;;;13.80;59.55
57192;BME280;43052;52.588;13.396;2024-03-25T10:52:57;100046.47;;;14.58;57.39
57192;BME280;43052;52.588;13.396;2024-03-25T10:55:24;100040.25;;;15.13;56.17
57192;BME280;43052;52.588;13.396;2024-03-25T10:57:54;100046.31;;;15.39;55.36
57192;BME280;43052;52.588;13.396;2024-03-25T11:00:22;100035.22;;;15.06;54.02
57192;BME280;43052;52.588;13.396;2024-03-25T11:02:48;100051.78;;;14.30;54.12
57192;BME280;43052;52.588;13.396;2024-03-25T11:05:14;100053.56;;;13.41;54.89
57192;BME280;43052;52.588;13.396;2024-03-25T11:07:40;100052.16;;;12.62;55.22
57192;BME280;43052;52.588;13.396;2024-03-25T11:10:11;100057.94;;;12.02;56.77
57192;BME280;43052;52.588;13.396;2024-03-25T11:12:40;100055.88;;;11.74;56.79
57192;BME280;43052;52.588;13.396;2024-03-25T11:15:06;100057.84;;;11.65;56.50
57192;BME280;43052;52.588;13.396;2024-03-25T11:17:36;100065.56;;;11.71;55.87
57192;BME280;43052;52.588;13.396;2024-03-25T11:20:12;100068.13;;;11.74;55.98
57192;BME280;43052;52.588;13.396;2024-03-25T11:22:49;100054.09;;;11.76;55.73
57192;BME280;43052;52.588;13.396;2024-03-25T11:25:16;100064.38;;;11.86;55.45
57192;BME280;43052;52.588;13.396;2024-03-25T11:27:43;100060.31;;;12.13;55.72
57192;BME280;43052;52.588;13.396;2024-03-25T11:30:16;100057.53;;;12.57;54.87
57192;BME280;43052;52.588;13.396;2024-03-25T11:32:51;100045.22;;;12.94;54.68
57192;BME280;43052;52.588;13.396;2024-03-25T11:35:18;100053.31;;;13.51;54.12
57192;BME280;43052;52.588;13.396;2024-03-25T11:37:44;100050.94;;;14.01;53.12
57192;BME280;43052;52.588;13.396;2024-03-25T11:40:10;100056.44;;;14.22;52.19
57192;BME280;43052;52.588;13.396;2024-03-25T11:42:38;100059.22;;;14.17;51.00
57192;BME280;43052;52.588;13.396;2024-03-25T11:45:06;100056.06;;;13.76;50.28
57192;BME280;43052;52.588;13.396;2024-03-25T11:47:31;100049.41;;;13.32;51.46
57192;BME280;43052;52.588;13.396;2024-03-25T11:49:57;100063.38;;;13.01;51.54
57192;BME280;43052;52.588;13.396;2024-03-25T11:52:22;100050.59;;;12.54;52.76
57192;BME280;43052;52.588;13.396;2024-03-25T11:54:54;100052.47;;;12.12;53.61
57192;BME280;43052;52.588;13.396;2024-03-25T11:57:20;100063.13;;;12.04;54.75
57192;BME280;43052;52.588;13.396;2024-03-25T11:59:46;100062.66;;;12.26;54.50
57192;BME280;43052;52.588;13.396;2024-03-25T12:02:15;100064.66;;;12.14;54.50
57192;BME280;43052;52.588;13.396;2024-03-25T12:04:44;100057.09;;;12.02;53.97
57192;BME280;43052;52.588;13.396;2024-03-25T12:07:12;100065.63;;;11.69;53.60
57192;BME280;43052;52.588;13.396;2024-03-25T12:09:37;100056.63;;;11.39;54.17
57192;BME280;43052;52.588;13.396;2024-03-25T12:12:21;100071.81;;;11.20;54.92
57192;BME280;43052;52.588;13.396;2024-03-25T12:14:47;100062.34;;;11.14;54.59
57192;BME280;43052;52.588;13.396;2024-03-25T12:17:13;100074.44;;;11.21;54.14
57192;BME280;43052;52.588;13.396;2024-03-25T12:19:38;100067.50;;;11.17;54.15
57192;BME280;43052;52.588;13.396;2024-03-25T12:22:04;100070.28;;;11.09;54.10
57192;BME280;43052;52.588;13.396;2024-03-25T12:24:29;100062.56;;;11.02;54.20
57192;BME280;43052;52.588;13.396;2024-03-25T12:26:55;100066.09;;;11.01;54.50
57192;BME280;43052;52.588;13.396;2024-03-25T12:29:20;100047.09;;;10.89;54.60
57192;BME280;43052;52.588;13.396;2024-03-25T12:31:56;100055.66;;;10.99;55.32
57192;BME280;43052;52.588;13.396;2024-03-25T12:34:22;100045.09;;;11.04;55.69
57192;BME280;43052;52.588;13.396;2024-03-25T12:36:48;100050.97;;;11.17;55.92
57192;BME280;43052;52.588;13.396;2024-03-25T12:39:20;100043.03;;;11.21;55.31
57192;BME280;43052;52.588;13.396;2024-03-25T12:41:45;100057.16;;;11.56;55.00
57192;BME280;43052;52.588;13.396;2024-03-25T12:44:14;100048.78;;;11.81;54.29
57192;BME280;43052;52.588;13.396;2024-03-25T12:46:39;100054.66;;;11.91;53.70
57192;BME280;43052;52.588;13.396;2024-03-25T12:49:06;100061.81;;;11.84;53.22
57192;BME280;43052;52.588;13.396;2024-03-25T12:51:33;100068.06;;;11.77;53.14
57192;BME280;43052;52.588;13.396;2024-03-25T12:53:58;100069.97;;;11.69;52.57
57192;BME280;43052;52.588;13.396;2024-03-25T12:56:24;100062.16;;;11.67;52.64
57192;BME280;43052;52.588;13.396;2024-03-25T12:58:50;100051.88;;;11.58;52.64
57192;BME280;43052;52.588;13.396;2024-03-25T13:01:15;100062.41;;;11.55;52.72
57192;BME280;43052;52.588;13.396;2024-03-25T13:03:41;100063.19;;;11.60;53.06
57192;BME280;43052;52.588;13.396;2024-03-25T13:06:07;100066.50;;;11.68;53.04
57192;BME280;43052;52.588;13.396;2024-03-25T13:08:33;100063.78;;;11.73;53.35
57192;BME280;43052;52.588;13.396;2024-03-25T13:10:59;100065.06;;;11.94;53.19
57192;BME280;43052;52.588;13.396;2024-03-25T13:13:25;100067.94;;;12.22;53.04
57192;BME280;43052;52.588;13.396;2024-03-25T13:15:51;100071.72;;;12.48;52.70
57192;BME280;43052;52.588;13.396;2024-03-25T13:18:16;100061.09;;;12.54;52.05
57192;BME280;43052;52.588;13.396;2024-03-25T13:20:44;100072.47;;;12.53;51.99
57192;BME280;43052;52.588;13.396;2024-03-25T13:23:10;100058.16;;;12.31;51.62
57192;BME280;43052;52.588;13.396;2024-03-25T13:25:36;100069.94;;;12.13;51.43
57192;BME280;43052;52.588;13.396;2024-03-25T13:28:04;100076.50;;;11.91;50.63
57192;BME280;43052;52.588;13.396;2024-03-25T13:30:31;100078.41;;;11.83;50.52
57192;BME280;43052;52.588;13.396;2024-03-25T13:32:57;100070.38;;;11.93;50.85
57192;BME280;43052;52.588;13.396;2024-03-25T13:35:22;100074.50;;;12.04;50.42
57192;BME280;43052;52.588;13.396;2024-03-25T13:37:48;100068.94;;;12.18;50.23
57192;BME280;43052;52.588;13.396;2024-03-25T13:40:13;100082.41;;;12.39;49.87
57192;BME280;43052;52.588;13.396;2024-03-25T13:42:40;100076.16;;;12.45;49.37
57192;BME280;43052;52.588;13.396;2024-03-25T13:45:06;100074.28;;;12.51;49.74
57192;BME280;43052;52.588;13.396;2024-03-25T13:47:31;100067.66;;;12.71;49.57
57192;BME280;43052;52.588;13.396;2024-03-25T13:50:04;100070.44;;;12.99;49.68
57192;BME280;43052;52.588;13.396;2024-03-25T13:52:30;100064.50;;;13.26;48.67
57192;BME280;43052;52.588;13.396;2024-03-25T13:54:56;100072.25;;;13.30;47.42
57192;BME280;43052;52.588;13.396;2024-03-25T13:57:21;100069.88;;;13.20;47.01
57192;BME280;43052;52.588;13.396;2024-03-25T13:59:48;100075.50;;;13.07;47.07
57192;BME280;43052;52.588;13.396;2024-03-25T14:02:13;100076.81;;;12.89;47.57
57192;BME280;43052;52.588;13.396;2024-03-25T14:04:39;100074.25;;;12.88;47.41
57192;BME280;43052;52.588;13.396;2024-03-25T14:07:04;100072.53;;;12.87;47.69
57192;BME280;43052;52.588;13.396;2024-03-25T14:09:30;100075.69;;;12.65;48.02
57192;BME280;43052;52.588;13.396;2024-03-25T14:11:56;100081.19;;;12.54;48.90
57192;BME280;43052;52.588;13.396;2024-03-25T14:14:21;100079.22;;;12.28;49.45
57192;BME280;43052;52.588;13.396;2024-03-25T14:16:46;100080.06;;;11.89;49.68
57192;BME280;43052;52.588;13.396;2024-03-25T14:19:12;100079.66;;;11.65;50.71
57192;BME280;43052;52.588;13.396;2024-03-25T14:21:37;100076.28;;;11.60;50.59
57192;BME280;43052;52.588;13.396;2024-03-25T14:24:06;100082.38;;;11.60;50.33
57192;BME280;43052;52.588;13.396;2024-03-25T14:26:32;100087.38;;;11.73;50.58
57192;BME280;43052;52.588;13.396;2024-03-25T14:28:58;100085.38;;;11.84;50.57
57192;BME280;43052;52.588;13.396;2024-03-25T14:31:25;100088.59;;;11.99;50.52
57192;BME280;43052;52.588;13.396;2024-03-25T14:33:51;100084.78;;;12.12;50.88
57192;BME280;43052;52.588;13.396;2024-03-25T14:36:16;100080.28;;;12.19;50.72
57192;BME280;43052;52.588;13.396;2024-03-25T14:38:42;100096.72;;;12.26;49.86
57192;BME280;43052;52.588;13.396;2024-03-25T14:41:10;100086.50;;;12.15;48.89
57192;BME280;43052;52.588;13.396;2024-03-25T14:43:36;100068.53;;;11.96;48.97
57192;BME280;43052;52.588;13.396;2024-03-25T14:46:01;100067.66;;;11.96;49.61
57192;BME280;43052;52.588;13.396;2024-03-25T14:48:27;100065.00;;;11.99;49.17
57192;BME280;43052;52.588;13.396;2024-03-25T14:50:52;100076.50;;;11.91;49.13
57192;BME280;43052;52.588;13.396;2024-03-25T14:53:18;100076.72;;;11.81;49.74
57192;BME280;43052;52.588;13.396;2024-03-25T14:55:43;100069.97;;;11.70;49.52
57192;BME280;43052;52.588;13.396;2024-03-25T14:58:09;100071.78;;;11.67;49.52
57192;BME280;43052;52.588;13.396;2024-03-25T15:00:35;100070.25;;;11.56;49.98